createdAt,value
2018-05-29T00:01:23.055Z,23.12
2018-05-29T00:03:51.342Z,23.24
2018-05-29T00:06:19.618Z,23.26
2018-05-29T00:08:47.925Z,23.18
2018-05-29T00:11:16.187Z,23.11
2018-05-29T00:13:44.477Z,23.17
2018-05-29T00:16:12.764Z,23.21
2018-05-29T00:18:41.250Z,23.30
2018-05-29T00:21:09.525Z,23.24
2018-05-29T00:23:37.833Z,23.10
2018-05-29T00:26:06.117Z,23.10
2018-05-29T00:28:34.417Z,23.17
2018-05-29T00:31:03.615Z,23.12
2018-05-29T00:33:31.931Z,23.07
2018-05-29T00:36:00.620Z,22.99
2018-05-29T00:38:29.829Z,23.00
2018-05-29T00:40:58.218Z,22.95
2018-05-29T00:43:26.557Z,22.93
2018-05-29T00:45:54.834Z,22.97
2018-05-29T00:48:23.102Z,22.99
2018-05-29T00:50:51.410Z,23.00
2018-05-29T00:53:19.694Z,22.76
2018-05-29T00:55:47.999Z,22.81
2018-05-29T00:58:16.277Z,22.67
2018-05-29T01:00:44.569Z,22.89
2018-05-29T01:03:12.842Z,22.87
2018-05-29T01:05:41.138Z,22.73
2018-05-29T01:08:09.422Z,22.57
2018-05-29T01:10:37.757Z,22.61
2018-05-29T01:13:07.526Z,22.64
2018-05-29T01:15:35.883Z,22.77
2018-05-29T01:18:05.424Z,22.80
2018-05-29T01:20:33.725Z,22.87
2018-05-29T01:23:02.008Z,22.78
2018-05-29T01:25:30.603Z,22.52
2018-05-29T01:27:59.538Z,22.48
2018-05-29T01:30:27.829Z,22.51
2018-05-29T01:32:56.101Z,22.24
2018-05-29T01:35:24.410Z,22.39
2018-05-29T01:37:52.906Z,22.55
2018-05-29T01:40:21.177Z,22.51
2018-05-29T01:42:49.478Z,22.50
2018-05-29T01:45:17.745Z,22.48
2018-05-29T01:47:46.035Z,22.39
2018-05-29T01:50:14.301Z,22.31
2018-05-29T01:52:42.620Z,22.39
2018-05-29T01:55:10.873Z,22.44
2018-05-29T01:57:39.754Z,22.52
2018-05-29T02:00:08.038Z,22.57
2018-05-29T02:02:36.345Z,22.51
2018-05-29T02:05:04.937Z,22.55
2018-05-29T02:07:33.310Z,22.58
2018-05-29T02:10:01.608Z,22.55
2018-05-29T02:12:29.929Z,22.54
2018-05-29T02:14:58.670Z,22.42
2018-05-29T02:17:27.074Z,22.37
2018-05-29T02:19:55.355Z,22.42
2018-05-29T02:22:23.886Z,22.40
2018-05-29T02:24:52.160Z,22.25
2018-05-29T02:27:20.463Z,22.14
2018-05-29T02:29:49.162Z,22.12
2018-05-29T02:32:17.459Z,22.13
2018-05-29T02:34:45.738Z,22.07
2018-05-29T02:37:14.271Z,22.00
2018-05-29T02:39:43.175Z,21.94
2018-05-29T02:42:11.442Z,21.91
2018-05-29T02:44:39.745Z,21.79
2018-05-29T02:47:08.023Z,21.74
2018-05-29T02:49:36.945Z,21.64
2018-05-29T02:52:05.679Z,21.64
2018-05-29T02:54:34.002Z,21.64
2018-05-29T02:57:02.295Z,21.55
2018-05-29T02:59:30.586Z,21.45
2018-05-29T03:01:58.850Z,21.34
2018-05-29T03:04:27.151Z,21.42
2018-05-29T03:06:55.417Z,21.37
2018-05-29T03:09:24.162Z,21.46
2018-05-29T03:11:52.489Z,21.61
2018-05-29T03:14:21.273Z,21.73
2018-05-29T03:16:49.914Z,21.71
2018-05-29T03:19:18.207Z,21.69
2018-05-29T03:21:46.479Z,21.83
2018-05-29T03:24:14.888Z,21.99
2018-05-29T03:26:43.196Z,22.02
2018-05-29T03:29:11.481Z,22.01
2018-05-29T03:31:39.787Z,21.79
2018-05-29T03:34:08.055Z,21.62
2018-05-29T03:36:36.357Z,21.68
2018-05-29T03:39:04.630Z,21.71
2018-05-29T03:41:32.957Z,21.67
2018-05-29T03:44:01.222Z,21.74
2018-05-29T03:46:29.537Z,21.80
2018-05-29T03:48:57.800Z,21.71
2018-05-29T03:51:26.165Z,21.66
2018-05-29T03:53:54.370Z,21.60
2018-05-29T03:56:22.670Z,21.66
2018-05-29T03:58:50.950Z,21.59
2018-05-29T04:01:19.261Z,21.70
2018-05-29T04:03:48.697Z,21.71
2018-05-29T04:06:17.019Z,21.68
2018-05-29T04:08:45.281Z,21.74
2018-05-29T04:11:13.592Z,21.82
2018-05-29T04:13:41.857Z,21.87
2018-05-29T04:16:10.163Z,21.93
2018-05-29T04:18:38.811Z,21.88
2018-05-29T04:21:07.126Z,21.89
2018-05-29T04:23:35.510Z,21.82
2018-05-29T04:26:04.197Z,21.82
2018-05-29T04:28:33.041Z,21.85
2018-05-29T04:31:01.309Z,21.83
2018-05-29T04:33:29.611Z,21.80
2018-05-29T04:35:57.895Z,21.85
2018-05-29T04:38:26.187Z,21.77
2018-05-29T04:40:54.462Z,21.64
2018-05-29T04:43:22.765Z,21.59
2018-05-29T04:45:51.040Z,21.58
2018-05-29T04:48:19.486Z,21.67
2018-05-29T04:50:47.763Z,21.74
2018-05-29T04:53:16.066Z,21.76
2018-05-29T04:55:44.343Z,21.71
2018-05-29T04:58:12.647Z,21.66
2018-05-29T05:00:40.926Z,21.56
2018-05-29T05:03:09.241Z,21.65
2018-05-29T05:05:37.521Z,21.64
2018-05-29T05:08:05.825Z,21.68
2018-05-29T05:10:34.239Z,21.73
2018-05-29T05:13:02.529Z,21.79
2018-05-29T05:15:30.813Z,21.86
2018-05-29T05:17:59.105Z,21.88
2018-05-29T05:20:27.410Z,21.92
2018-05-29T05:22:55.681Z,21.90
2018-05-29T05:25:23.984Z,21.85
2018-05-29T05:27:52.372Z,21.92
2018-05-29T05:30:20.683Z,21.97
2018-05-29T05:32:48.951Z,21.84
2018-05-29T05:35:17.260Z,21.83
2018-05-29T05:37:45.588Z,21.87
2018-05-29T05:40:13.883Z,21.95
2018-05-29T05:42:42.204Z,21.75
2018-05-29T05:45:10.510Z,21.89
2018-05-29T05:47:38.787Z,21.96
2018-05-29T05:50:07.101Z,22.01
2018-05-29T05:52:35.375Z,22.09
2018-05-29T05:55:03.742Z,22.18
2018-05-29T05:57:32.454Z,22.26
2018-05-29T06:00:00.748Z,22.28
2018-05-29T06:02:29.035Z,22.33
2018-05-29T06:04:57.323Z,22.17
2018-05-29T06:07:25.622Z,22.04
2018-05-29T06:09:53.898Z,22.12
2018-05-29T06:12:22.193Z,22.25
2018-05-29T06:14:50.462Z,22.44
2018-05-29T06:17:18.792Z,22.50
2018-05-29T06:19:47.070Z,22.56
2018-05-29T06:22:15.390Z,22.55
2018-05-29T06:24:43.655Z,22.53
2018-05-29T06:27:11.969Z,22.64
2018-05-29T06:29:40.245Z,22.65
2018-05-29T06:32:08.545Z,22.74
2018-05-29T06:34:37.219Z,22.84
2018-05-29T06:37:05.931Z,22.86
2018-05-29T06:39:34.235Z,22.81
2018-05-29T06:42:03.233Z,22.93
2018-05-29T06:44:31.529Z,23.01
2018-05-29T06:46:59.805Z,22.99
2018-05-29T06:49:28.098Z,23.18
2018-05-29T06:51:56.989Z,23.28
2018-05-29T06:54:25.268Z,23.26
2018-05-29T06:56:53.559Z,23.33
2018-05-29T06:59:21.868Z,23.47
2018-05-29T07:01:50.132Z,23.43
2018-05-29T07:04:18.422Z,23.52
2018-05-29T07:06:46.722Z,23.44
2018-05-29T07:09:31.819Z,23.52
2018-05-29T07:12:00.132Z,23.72
2018-05-29T07:14:28.467Z,23.88
2018-05-29T07:16:56.699Z,23.91
2018-05-29T07:19:24.989Z,23.79
2018-05-29T07:21:53.273Z,23.86
2018-05-29T07:24:21.568Z,23.97
2018-05-29T07:26:49.841Z,23.91
2018-05-29T07:29:18.155Z,23.89
2018-05-29T07:31:46.446Z,23.84
2018-05-29T07:34:14.723Z,23.83
2018-05-29T07:36:43.018Z,23.17
2018-05-29T07:39:11.294Z,23.41
2018-05-29T07:41:39.586Z,23.32
2018-05-29T07:44:07.850Z,23.60
2018-05-29T07:46:36.182Z,23.74
2018-05-29T07:49:04.727Z,23.69
2018-05-29T07:51:33.274Z,23.87
2018-05-29T07:54:01.605Z,23.93
2018-05-29T07:56:29.955Z,24.10
2018-05-29T07:58:58.219Z,24.26
2018-05-29T08:01:26.526Z,24.29
2018-05-29T08:03:54.878Z,24.29
2018-05-29T08:06:23.183Z,24.29
2018-05-29T08:08:51.437Z,24.37
2018-05-29T08:11:19.754Z,24.13
2018-05-29T08:13:48.851Z,24.20
2018-05-29T08:16:17.158Z,24.14
2018-05-29T08:18:45.419Z,24.18
2018-05-29T08:21:13.722Z,24.05
2018-05-29T08:23:42.049Z,24.12
2018-05-29T08:26:10.377Z,24.02
2018-05-29T08:28:38.635Z,23.89
2018-05-29T08:31:07.016Z,23.90
2018-05-29T08:33:35.242Z,24.06
2018-05-29T08:36:03.552Z,24.19
2018-05-29T08:38:31.850Z,24.29
2018-05-29T08:41:00.106Z,24.27
2018-05-29T08:43:29.095Z,24.32
2018-05-29T08:45:57.355Z,24.45
2018-05-29T08:48:25.674Z,24.42
2018-05-29T08:50:53.922Z,24.28
2018-05-29T08:53:22.215Z,24.41
2018-05-29T08:55:50.601Z,24.53
2018-05-29T08:58:18.877Z,24.39
2018-05-29T09:00:47.163Z,24.33
2018-05-29T09:03:15.554Z,24.35
2018-05-29T09:05:43.847Z,24.39
2018-05-29T09:08:12.151Z,24.48
2018-05-29T09:10:40.740Z,24.40
2018-05-29T09:13:09.046Z,24.56
2018-05-29T09:15:37.331Z,24.52
2018-05-29T09:18:06.360Z,24.62
2018-05-29T09:20:34.643Z,24.72
2018-05-29T09:23:02.926Z,24.58
2018-05-29T09:25:31.240Z,24.60
2018-05-29T09:27:59.529Z,24.44
2018-05-29T09:30:27.830Z,24.42
2018-05-29T09:32:56.102Z,24.19
2018-05-29T09:35:24.411Z,24.03
2018-05-29T09:37:52.655Z,23.85
2018-05-29T09:40:21.692Z,23.83
2018-05-29T09:42:49.998Z,23.95
2018-05-29T09:45:18.257Z,23.97
2018-05-29T09:47:46.518Z,24.11
2018-05-29T09:50:14.813Z,24.07
2018-05-29T09:52:43.096Z,23.89
2018-05-29T09:55:11.789Z,23.77
2018-05-29T09:57:40.186Z,23.65
2018-05-29T10:00:08.495Z,23.75
2018-05-29T10:02:36.773Z,23.77
2018-05-29T10:05:05.200Z,23.82
2018-05-29T10:07:33.484Z,23.82
2018-05-29T10:10:01.751Z,23.78
2018-05-29T10:12:30.031Z,23.90
2018-05-29T10:14:58.345Z,24.03
2018-05-29T10:17:26.724Z,24.03
2018-05-29T10:19:54.997Z,23.96
2018-05-29T10:22:23.309Z,24.04
2018-05-29T10:24:51.602Z,23.87
2018-05-29T10:27:19.947Z,23.96
2018-05-29T10:29:48.233Z,23.89
2018-05-29T10:32:16.954Z,23.73
2018-05-29T10:34:46.597Z,23.72
2018-05-29T10:37:15.550Z,23.81
2018-05-29T10:39:43.810Z,23.90
2018-05-29T10:42:12.090Z,24.04
2018-05-29T10:44:40.371Z,24.20
2018-05-29T10:47:08.656Z,24.15
2018-05-29T10:49:36.906Z,24.06
2018-05-29T10:52:05.200Z,24.29
2018-05-29T10:54:33.470Z,24.28
2018-05-29T10:57:01.759Z,24.15
2018-05-29T10:59:30.042Z,24.05
2018-05-29T11:01:58.320Z,23.97
2018-05-29T11:04:26.643Z,24.11
2018-05-29T11:06:55.138Z,24.32
2018-05-29T11:09:23.334Z,24.48
2018-05-29T11:11:51.731Z,24.72
2018-05-29T11:14:20.074Z,24.89
2018-05-29T11:16:48.298Z,24.85
2018-05-29T11:19:16.595Z,24.91
2018-05-29T11:21:44.899Z,24.88
2018-05-29T11:24:13.178Z,24.74
2018-05-29T11:26:41.470Z,24.75
2018-05-29T11:29:09.770Z,24.76
2018-05-29T11:31:38.059Z,24.77
2018-05-29T11:34:06.351Z,24.64
2018-05-29T11:36:34.618Z,24.77
2018-05-29T11:39:02.922Z,24.84
2018-05-29T11:41:31.247Z,24.71
2018-05-29T11:43:59.501Z,24.75
2018-05-29T11:46:27.789Z,24.88
2018-05-29T11:48:56.383Z,24.87
2018-05-29T11:51:24.663Z,24.66
2018-05-29T11:53:52.927Z,24.47
2018-05-29T11:56:21.217Z,24.34
2018-05-29T11:58:49.479Z,24.37
2018-05-29T12:01:17.789Z,24.38
2018-05-29T12:03:46.065Z,24.40
2018-05-29T12:06:14.354Z,24.47
2018-05-29T12:08:42.972Z,24.40
2018-05-29T12:11:11.249Z,24.42
2018-05-29T12:13:40.358Z,24.34
2018-05-29T12:16:08.647Z,24.33
2018-05-29T12:18:37.735Z,24.37
2018-05-29T12:21:06.023Z,24.36
2018-05-29T12:23:34.311Z,24.41
2018-05-29T12:26:02.582Z,24.38
2018-05-29T12:28:30.872Z,24.25
2018-05-29T12:30:59.143Z,24.19
2018-05-29T12:33:27.476Z,24.09
2018-05-29T12:35:55.743Z,24.09
2018-05-29T12:38:24.039Z,24.09
2018-05-29T12:40:52.323Z,24.21
2018-05-29T12:43:20.590Z,24.34
2018-05-29T12:45:48.857Z,24.45
2018-05-29T12:48:17.154Z,24.41
2018-05-29T12:50:45.415Z,24.46
2018-05-29T12:53:13.723Z,24.57
2018-05-29T12:55:41.967Z,24.52
2018-05-29T12:58:10.329Z,24.54
2018-05-29T13:00:38.596Z,24.58
2018-05-29T13:03:06.866Z,24.71
2018-05-29T13:05:35.196Z,24.72
2018-05-29T13:08:03.467Z,24.67
2018-05-29T13:10:31.751Z,24.67
2018-05-29T13:13:00.041Z,24.76
2018-05-29T13:15:28.330Z,24.78
2018-05-29T13:17:56.592Z,24.71
2018-05-29T13:20:24.873Z,24.58
2018-05-29T13:22:53.174Z,24.60
2018-05-29T13:25:21.464Z,24.71
2018-05-29T13:27:49.719Z,24.69
2018-05-29T13:30:18.010Z,24.63
2018-05-29T13:32:46.279Z,24.66
2018-05-29T13:35:14.584Z,24.69
2018-05-29T13:37:42.830Z,24.69
2018-05-29T13:40:11.165Z,24.52
2018-05-29T13:42:39.414Z,24.59
2018-05-29T13:45:07.718Z,24.51
2018-05-29T13:47:35.999Z,24.36
2018-05-29T13:50:05.195Z,24.20
2018-05-29T13:52:33.474Z,24.21
2018-05-29T13:55:01.767Z,24.20
2018-05-29T13:57:30.063Z,24.22
2018-05-29T13:59:58.391Z,24.13
2018-05-29T14:02:26.959Z,24.07
2018-05-29T14:04:55.227Z,24.12
2018-05-29T14:07:23.509Z,24.24
2018-05-29T14:09:51.783Z,24.47
2018-05-29T14:12:20.292Z,24.67
2018-05-29T14:14:48.515Z,24.75
2018-05-29T14:17:16.809Z,24.71
2018-05-29T14:19:45.108Z,24.77
2018-05-29T14:22:14.093Z,24.93
2018-05-29T14:24:42.365Z,25.08
2018-05-29T14:27:10.704Z,25.12
2018-05-29T14:29:38.963Z,25.35
2018-05-29T14:32:07.229Z,25.33
2018-05-29T14:34:35.700Z,25.37
2018-05-29T14:37:03.999Z,25.41
2018-05-29T14:39:32.458Z,25.38
2018-05-29T14:42:00.721Z,25.33
2018-05-29T14:44:29.796Z,25.14
2018-05-29T14:46:58.058Z,25.18
2018-05-29T14:49:26.379Z,25.15
2018-05-29T14:51:55.834Z,25.26
2018-05-29T14:54:24.116Z,25.20
2018-05-29T14:56:52.377Z,25.06
2018-05-29T14:59:20.730Z,24.90
2018-05-29T15:01:48.993Z,24.78
2018-05-29T15:04:17.291Z,24.74
2018-05-29T15:06:45.584Z,24.80
2018-05-29T15:09:13.910Z,24.84
2018-05-29T15:11:42.198Z,24.88
2018-05-29T15:14:10.462Z,24.97
2018-05-29T15:16:38.758Z,24.90
2018-05-29T15:19:07.043Z,24.72
2018-05-29T15:21:35.332Z,24.90
2018-05-29T15:24:03.603Z,25.01
2018-05-29T15:26:32.860Z,25.06
2018-05-29T15:29:01.560Z,25.05
2018-05-29T15:31:29.861Z,24.92
2018-05-29T15:33:58.139Z,24.99
2018-05-29T15:36:26.414Z,24.97
2018-05-29T15:38:54.741Z,25.03
2018-05-29T15:41:23.067Z,25.11
2018-05-29T15:43:51.318Z,25.07
2018-05-29T15:46:19.627Z,25.04
2018-05-29T15:48:47.917Z,25.19
2018-05-29T15:51:16.268Z,25.35
2018-05-29T15:53:45.332Z,25.55
2018-05-29T15:56:13.978Z,25.66
2018-05-29T15:58:42.960Z,25.79
2018-05-29T16:01:11.223Z,25.82
2018-05-29T16:03:39.781Z,25.51
2018-05-29T16:06:08.211Z,25.44
2018-05-29T16:08:36.465Z,25.59
2018-05-29T16:11:04.748Z,25.89
2018-05-29T16:13:33.039Z,26.06
2018-05-29T16:16:01.305Z,26.01
2018-05-29T16:18:29.607Z,25.75
2018-05-29T16:20:58.058Z,25.69
2018-05-29T16:23:27.046Z,25.53
2018-05-29T16:25:55.326Z,25.58
2018-05-29T16:28:23.627Z,25.49
2018-05-29T16:30:51.928Z,25.60
2018-05-29T16:33:20.225Z,25.44
2018-05-29T16:35:48.483Z,25.20
2018-05-29T16:38:16.782Z,25.19
2018-05-29T16:40:45.103Z,25.19
2018-05-29T16:43:13.804Z,25.09
2018-05-29T16:45:42.077Z,24.82
2018-05-29T16:48:10.399Z,24.68
2018-05-29T16:50:38.715Z,24.56
2018-05-29T16:53:07.002Z,24.80
2018-05-29T16:55:36.941Z,24.93
2018-05-29T16:58:05.824Z,24.96
2018-05-29T17:00:34.173Z,25.11
2018-05-29T17:03:02.444Z,25.18
2018-05-29T17:05:30.738Z,25.20
2018-05-29T17:07:59.022Z,25.09
2018-05-29T17:10:27.548Z,25.13
2018-05-29T17:12:55.793Z,25.10
2018-05-29T17:15:24.174Z,25.23
2018-05-29T17:17:52.368Z,25.41
2018-05-29T17:20:20.652Z,25.46
2018-05-29T17:22:48.967Z,25.34
2018-05-29T17:25:18.010Z,25.44
2018-05-29T17:27:46.961Z,25.41
2018-05-29T17:30:15.272Z,25.11
2018-05-29T17:32:43.845Z,25.05
2018-05-29T17:35:12.132Z,24.71
2018-05-29T17:37:40.477Z,24.70
2018-05-29T17:40:08.878Z,24.69
2018-05-29T17:42:37.194Z,24.89
2018-05-29T17:45:05.943Z,25.15
2018-05-29T17:47:34.472Z,25.13
2018-05-29T17:50:02.773Z,25.21
2018-05-29T17:52:31.062Z,25.01
2018-05-29T17:54:59.330Z,25.11
2018-05-29T17:57:27.638Z,25.03
2018-05-29T17:59:55.906Z,24.88
2018-05-29T18:02:24.349Z,24.83
2018-05-29T18:04:52.602Z,24.71
2018-05-29T18:07:20.949Z,24.66
2018-05-29T18:09:49.518Z,24.78
2018-05-29T18:12:17.822Z,24.73
2018-05-29T18:14:46.101Z,24.83
2018-05-29T18:17:14.407Z,24.81
2018-05-29T18:19:42.686Z,23.87
2018-05-29T18:22:11.238Z,24.92
2018-05-29T18:24:39.518Z,25.09
2018-05-29T18:27:07.934Z,25.20
2018-05-29T18:29:36.219Z,25.42
2018-05-29T18:32:05.055Z,25.60
2018-05-29T18:34:33.357Z,25.65
2018-05-29T18:37:01.638Z,25.68
2018-05-29T18:39:29.954Z,25.66
2018-05-29T18:41:58.208Z,25.79
2018-05-29T18:44:26.538Z,25.81
2018-05-29T18:46:54.805Z,25.81
2018-05-29T18:49:23.191Z,25.83
2018-05-29T18:51:51.447Z,25.75
2018-05-29T18:54:19.735Z,25.77
2018-05-29T18:56:48.166Z,25.84
2018-05-29T18:59:16.495Z,25.87
2018-05-29T19:01:44.763Z,25.84
2018-05-29T19:04:13.057Z,25.65
2018-05-29T19:06:41.325Z,25.43
2018-05-29T19:09:09.623Z,25.57
2018-05-29T19:11:37.880Z,25.68
2018-05-29T19:14:06.189Z,25.75
2018-05-29T19:16:34.468Z,25.76
2018-05-29T19:19:02.772Z,25.76
2018-05-29T19:21:31.103Z,25.71
2018-05-29T19:23:59.370Z,25.68
2018-05-29T19:26:27.683Z,25.80
2018-05-29T19:28:55.980Z,25.82
2018-05-29T19:31:25.719Z,25.82
2018-05-29T19:33:54.032Z,25.82
2018-05-29T19:36:24.001Z,25.79
2018-05-29T19:38:52.271Z,25.82
2018-05-29T19:41:20.559Z,25.84
2018-05-29T19:43:48.868Z,25.86
2018-05-29T19:46:17.179Z,25.97
2018-05-29T19:48:45.450Z,25.97
2018-05-29T19:51:13.816Z,25.97
2018-05-29T19:53:42.046Z,25.90
2018-05-29T19:56:10.350Z,25.87
2018-05-29T19:58:38.618Z,25.81
2018-05-29T20:01:06.881Z,25.83
2018-05-29T20:03:35.210Z,25.80
2018-05-29T20:06:03.471Z,25.73
2018-05-29T20:08:31.771Z,25.69
2018-05-29T20:11:03.437Z,25.60
2018-05-29T20:13:31.727Z,25.58
2018-05-29T20:16:06.618Z,25.52
2018-05-29T20:18:34.911Z,25.52
2018-05-29T20:21:06.462Z,25.40
2018-05-29T20:23:34.907Z,24.66
2018-05-29T20:26:03.254Z,24.11
2018-05-29T20:28:32.074Z,23.71
2018-05-29T20:31:00.353Z,23.40
2018-05-29T20:33:29.403Z,23.23
2018-05-29T20:35:58.911Z,23.12
2018-05-29T20:38:27.458Z,23.02
2018-05-29T20:40:59.250Z,22.96
2018-05-29T20:43:28.367Z,22.87
2018-05-29T20:45:57.374Z,22.87
2018-05-29T20:48:25.687Z,22.85
2018-05-29T20:50:53.950Z,22.83
2018-05-29T20:53:22.357Z,22.75
2018-05-29T20:55:50.637Z,22.67
2018-05-29T20:58:18.935Z,22.61
2018-05-29T21:00:53.736Z,22.55
2018-05-29T21:03:22.934Z,22.51
2018-05-29T21:05:51.310Z,22.42
2018-05-29T21:08:19.621Z,22.31
2018-05-29T21:10:47.962Z,22.19
2018-05-29T21:13:16.242Z,22.17
2018-05-29T21:15:44.549Z,22.17
2018-05-29T21:18:13.802Z,22.21
2018-05-29T21:20:42.070Z,22.14
2018-05-29T21:23:10.358Z,22.08
2018-05-29T21:25:38.643Z,22.04
2018-05-29T21:28:06.925Z,21.98
2018-05-29T21:30:35.223Z,21.85
2018-05-29T21:33:03.498Z,22.02
2018-05-29T21:35:31.763Z,21.97
2018-05-29T21:38:00.650Z,21.94
2018-05-29T21:40:28.942Z,21.98
2018-05-29T21:42:57.238Z,21.87
2018-05-29T21:45:25.525Z,21.73
2018-05-29T21:47:53.828Z,21.46
2018-05-29T21:50:22.087Z,21.36
2018-05-29T21:52:50.394Z,21.28
2018-05-29T21:55:18.672Z,21.34
2018-05-29T21:57:46.974Z,21.32
2018-05-29T22:00:15.373Z,21.11
2018-05-29T22:02:43.667Z,20.89
2018-05-29T22:05:11.944Z,20.92
2018-05-29T22:07:40.271Z,21.04
2018-05-29T22:10:08.537Z,20.98
2018-05-29T22:12:36.806Z,20.87
2018-05-29T22:15:05.095Z,20.83
2018-05-29T22:17:33.436Z,21.00
2018-05-29T22:20:01.713Z,20.79
2018-05-29T22:22:29.981Z,20.77
2018-05-29T22:24:58.288Z,20.79
2018-05-29T22:27:26.564Z,20.84
2018-05-29T22:29:54.894Z,20.87
2018-05-29T22:32:23.126Z,20.86
2018-05-29T22:34:51.418Z,20.82
2018-05-29T22:37:19.692Z,20.78
2018-05-29T22:39:47.977Z,20.62
2018-05-29T22:42:16.253Z,20.55
2018-05-29T22:44:44.584Z,20.47
2018-05-29T22:47:12.855Z,20.53
2018-05-29T22:49:41.134Z,20.56
2018-05-29T22:52:09.387Z,20.47
2018-05-29T22:54:37.695Z,20.51
2018-05-29T22:57:05.967Z,20.53
2018-05-29T22:59:34.235Z,20.53
2018-05-29T23:02:02.525Z,20.38
2018-05-29T23:04:30.797Z,20.32
2018-05-29T23:06:59.104Z,20.34
2018-05-29T23:09:27.355Z,20.22
2018-05-29T23:11:55.641Z,20.22
2018-05-29T23:14:23.910Z,20.31
2018-05-29T23:16:52.227Z,20.22
2018-05-29T23:19:20.494Z,20.21
2018-05-29T23:21:48.800Z,20.19
2018-05-29T23:24:17.107Z,20.16
2018-05-29T23:26:45.383Z,20.20
2018-05-29T23:29:13.654Z,20.22
2018-05-29T23:31:41.938Z,20.05
2018-05-29T23:34:10.222Z,20.07
2018-05-29T23:36:38.517Z,20.02
2018-05-29T23:39:06.798Z,20.00
2018-05-29T23:41:35.075Z,19.85
2018-05-29T23:44:03.391Z,19.88
2018-05-29T23:46:31.630Z,19.92
2018-05-29T23:49:00.856Z,19.93
2018-05-29T23:51:29.127Z,19.92
2018-05-29T23:53:57.405Z,19.89
2018-05-29T23:56:25.682Z,19.89
2018-05-29T23:58:53.968Z,19.79
